Time;durP1;ratioP1;P1;durP2;ratioP2;P2;SDS_P1;SDS_P2;PMS_P1;PMS_P2;Temp;Humidity;BMP_temperature;BMP_pressure;BME280_temperature;BME280_humidity;BME280_pressure;Samples;Min_cycle;Max_cycle;Signal;HPM_P1;HPM_P2
2022/02/15 00:02:41;;;;;;;3.13;1.55;;;0.70;99.90;;;;;;21074477;28;20040;-50
2022/02/15 00:12:44;;;;;;;1.90;1.10;;;0.70;99.90;;;;;;21073225;28;20093;-49
2022/02/15 00:22:46;;;;;;;3.88;1.98;;;0.70;99.90;;;;;;21056038;28;20453;-49
2022/02/15 00:32:48;;;;;;;4.47;2.15;;;0.70;99.90;;;;;;21072274;28;20036;-48
2022/02/15 00:42:52;;;;;;;1.80;0.80;;;0.70;99.90;;;;;;21073131;28;20097;-48
2022/02/15 00:52:54;;;;;;;1.00;0.70;;;0.70;99.90;;;;;;21070257;28;20097;-49
2022/02/15 01:02:57;;;;;;;1.40;0.70;;;0.70;99.90;;;;;;21069283;28;20044;-49
2022/02/15 01:12:59;;;;;;;0.82;0.40;;;0.70;99.90;;;;;;21068373;28;20093;-52
2022/02/15 01:23:02;;;;;;;0.22;0.20;;;0.70;99.90;;;;;;21067258;28;20097;-52
2022/02/15 01:33:04;;;;;;;0.20;0.10;;;0.60;99.90;;;;;;21050533;28;20048;-54
2022/02/15 01:43:07;;;;;;;0.00;0.00;;;0.60;99.90;;;;;;21066566;28;20040;-48
2022/02/15 01:53:10;;;;;;;0.00;0.00;;;0.70;99.90;;;;;;21065934;28;20491;-49
2022/02/15 02:03:14;;;;;;;0.10;0.00;;;0.70;99.90;;;;;;21065438;28;20097;-49
2022/02/15 02:13:18;;;;;;;0.00;0.00;;;0.70;99.90;;;;;;21064855;28;20035;-54
2022/02/15 02:23:23;;;;;;;0.30;0.00;;;0.70;99.90;;;;;;21064374;28;20036;-51
2022/02/15 02:33:29;;;;;;;0.00;0.00;;;0.60;99.90;;;;;;21064582;28;20035;-52
2022/02/15 02:43:32;;;;;;;0.00;0.00;;;0.70;99.90;;;;;;21061887;28;20069;-49
2022/02/15 02:53:36;;;;;;;0.13;0.00;;;0.60;99.90;;;;;;21080032;28;20505;-50
2022/02/15 03:03:39;;;;;;;0.00;0.00;;;0.60;99.90;;;;;;21078924;28;20089;-49
2022/02/15 03:13:43;;;;;;;0.00;0.00;;;0.60;99.90;;;;;;21079573;28;20531;-48
2022/02/15 03:23:53;;;;;;;0.35;0.00;;;0.70;99.90;;;;;;21078799;28;20461;-49
2022/02/15 03:33:56;;;;;;;0.00;0.00;;;0.80;99.90;;;;;;21076551;28;20487;-50
2022/02/15 03:44:00;;;;;;;0.00;0.00;;;0.70;99.90;;;;;;21059739;28;20433;-47
2022/02/15 03:54:08;;;;;;;0.30;0.00;;;0.70;99.90;;;;;;21074419;28;20125;-47
2022/02/15 04:04:11;;;;;;;0.00;0.00;;;0.70;99.90;;;;;;21074362;28;20040;-49
2022/02/15 04:14:15;;;;;;;0.00;0.00;;;0.70;99.90;;;;;;21073630;28;20036;-49
2022/02/15 04:24:19;;;;;;;0.00;0.00;;;0.70;99.90;;;;;;21074023;28;20036;-52
2022/02/15 04:34:22;;;;;;;0.00;0.00;;;0.70;99.90;;;;;;21073459;28;20082;-49
2022/02/15 04:44:26;;;;;;;0.00;0.00;;;0.70;99.90;;;;;;21071512;28;20028;-47
2022/02/15 04:54:30;;;;;;;0.00;0.00;;;0.70;99.90;;;;;;21070072;28;20044;-49
2022/02/15 05:04:48;;;;;;;0.05;0.00;;;0.70;99.90;;;;;;21069624;28;20040;-54
2022/02/15 05:14:51;;;;;;;0.00;0.00;;;0.80;99.90;;;;;;21069097;28;20040;-52
2022/02/15 05:25:06;;;;;;;0.00;0.00;;;0.80;99.90;;;;;;21051325;28;20040;-55
2022/02/15 05:35:09;;;;;;;0.00;0.00;;;0.80;99.90;;;;;;21067567;28;20403;-49
2022/02/15 05:45:17;;;;;;;0.00;0.00;;;0.80;99.90;;;;;;21067139;28;20032;-50
2022/02/15 05:55:40;;;;;;;0.00;0.00;;;0.70;99.90;;;;;;21066285;28;20097;-50
2022/02/15 06:05:45;;;;;;;0.63;0.00;;;0.70;99.90;;;;;;21066903;28;20036;-50
2022/02/15 06:15:48;;;;;;;1.10;0.00;;;0.60;99.90;;;;;;21048006;28;20104;-51
2022/02/15 06:25:58;;;;;;;0.30;0.00;;;0.70;99.90;;;;;;21048287;28;20036;-51
2022/02/15 06:36:04;;;;;;;0.00;0.00;;;0.80;99.90;;;;;;21048447;28;20032;-54
2022/02/15 06:46:09;;;;;;;0.00;0.00;;;0.80;99.90;;;;;;21063957;28;20058;-54
2022/02/15 06:56:12;;;;;;;0.00;0.00;;;0.90;99.90;;;;;;21063629;28;20044;-54
2022/02/15 07:06:20;;;;;;;0.00;0.00;;;0.90;99.90;;;;;;21046840;28;20398;-54
2022/02/15 07:16:24;;;;;;;0.00;0.00;;;0.90;99.90;;;;;;21062301;28;20483;-54
2022/02/15 07:26:30;;;;;;;0.00;0.00;;;0.80;99.90;;;;;;21071671;28;20085;-59
2022/02/15 07:36:36;;;;;;;0.00;0.00;;;0.70;99.90;;;;;;21077534;28;20081;-53
2022/02/15 07:46:42;;;;;;;0.00;0.00;;;0.60;99.90;;;;;;21076590;28;20562;-53
2022/02/15 07:56:47;;;;;;;0.35;0.15;;;0.60;99.90;;;;;;21075287;28;20048;-55
2022/02/15 08:06:53;;;;;;;0.00;0.00;;;0.60;99.90;;;;;;21074933;28;20105;-53
2022/02/15 08:16:56;;;;;;;0.00;0.00;;;0.60;99.90;;;;;;21074251;28;20040;-60
2022/02/15 08:27:00;;;;;;;0.00;0.00;;;0.60;99.90;;;;;;21073057;28;20036;-58
2022/02/15 08:37:12;;;;;;;0.10;0.00;;;0.70;99.90;;;;;;21062155;28;20032;-56
2022/02/15 08:47:16;;;;;;;0.00;0.00;;;0.70;99.90;;;;;;21073229;28;20048;-58
2022/02/15 08:57:18;;;;;;;0.00;0.00;;;0.70;99.90;;;;;;21072022;28;20042;-59
2022/02/15 09:07:21;;;;;;;0.00;0.00;;;0.70;99.90;;;;;;21072474;28;20032;-56
2022/02/15 09:17:23;;;;;;;0.00;0.00;;;0.80;99.90;;;;;;21070190;28;20548;-58
2022/02/15 09:27:26;;;;;;;0.00;0.00;;;0.90;99.90;;;;;;21069611;28;20085;-60
2022/02/15 09:37:30;;;;;;;0.00;0.00;;;0.90;99.90;;;;;;21063918;28;20037;-60
2022/02/15 09:47:34;;;;;;;0.00;0.00;;;0.90;99.90;;;;;;21062957;28;20051;-56
2022/02/15 09:57:36;;;;;;;0.03;0.00;;;0.90;99.90;;;;;;21066425;28;20032;-56
2022/02/15 10:07:48;;;;;;;0.52;0.00;;;0.90;99.90;;;;;;21066119;28;20032;-56
2022/02/15 10:17:50;;;;;;;0.00;0.00;;;0.80;99.90;;;;;;21065388;28;20028;-54
2022/02/15 10:27:53;;;;;;;0.00;0.00;;;0.80;99.90;;;;;;21067321;28;20379;-56
2022/02/15 10:37:57;;;;;;;0.00;0.00;;;0.60;99.90;;;;;;21064983;28;20093;-56
2022/02/15 10:48:06;;;;;;;0.00;0.00;;;0.50;99.90;;;;;;21064233;28;20073;-57
2022/02/15 10:58:09;;;;;;;0.25;0.00;;;0.50;99.90;;;;;;21068100;28;20048;-52
2022/02/15 11:08:13;;;;;;;0.00;0.00;;;0.50;99.90;;;;;;21080568;28;20476;-53
2022/02/15 11:18:19;;;;;;;0.00;0.00;;;0.50;99.90;;;;;;21080790;28;20110;-54
2022/02/15 11:28:26;;;;;;;0.00;0.00;;;0.40;99.90;;;;;;21078246;28;20449;-51
2022/02/15 11:38:29;;;;;;;0.00;0.00;;;0.50;99.90;;;;;;21077008;28;20036;-53
2022/02/15 11:48:39;;;;;;;0.00;0.00;;;0.40;99.90;;;;;;21077128;28;20106;-54
2022/02/15 11:58:47;;;;;;;0.00;0.00;;;0.40;99.90;;;;;;21077416;28;20061;-52
2022/02/15 12:08:54;;;;;;;0.00;0.00;;;0.40;99.90;;;;;;21075820;28;20040;-53
2022/02/15 12:18:57;;;;;;;0.00;0.00;;;0.50;99.90;;;;;;21074800;28;20101;-50
2022/02/15 12:29:01;;;;;;;0.00;0.00;;;0.60;99.90;;;;;;21056012;28;20044;-52
2022/02/15 12:39:06;;;;;;;0.00;0.00;;;0.60;99.90;;;;;;21072267;28;20040;-50
2022/02/15 12:49:09;;;;;;;0.00;0.00;;;0.60;99.90;;;;;;21073695;28;20093;-52
2022/02/15 12:59:21;;;;;;;0.00;0.00;;;0.60;99.90;;;;;;21070555;28;20109;-52
2022/02/15 13:09:29;;;;;;;0.00;0.00;;;0.70;99.90;;;;;;21069968;28;20039;-51
2022/02/15 13:19:36;;;;;;;0.10;0.00;;;0.80;99.90;;;;;;21069236;28;20081;-51
2022/02/15 13:29:39;;;;;;;0.00;0.00;;;0.80;99.90;;;;;;21071553;28;20032;-50
2022/02/15 13:39:42;;;;;;;0.00;0.00;;;0.90;99.90;;;;;;21068745;28;20040;-54
2022/02/15 13:49:45;;;;;;;0.00;0.00;;;1.00;99.90;;;;;;21069436;28;20052;-49
2022/02/15 13:59:47;;;;;;;0.75;0.00;;;1.10;99.90;;;;;;21068968;28;20494;-51
2022/02/15 14:09:50;;;;;;;0.55;0.00;;;1.20;99.90;;;;;;21067565;28;20031;-50
2022/02/15 14:19:53;;;;;;;0.00;0.00;;;1.20;99.90;;;;;;21068535;28;20433;-51
2022/02/15 14:29:56;;;;;;;0.52;0.10;;;1.20;99.90;;;;;;21052465;28;20108;-49
2022/02/15 14:39:59;;;;;;;0.00;0.00;;;1.30;99.90;;;;;;21070146;28;20081;-51
2022/02/15 14:50:02;;;;;;;0.08;0.00;;;1.40;99.90;;;;;;21085707;28;20047;-50
2022/02/15 15:00:08;;;;;;;0.20;0.00;;;1.40;99.90;;;;;;21090208;28;20410;-49
2022/02/15 15:10:12;;;;;;;0.10;0.00;;;1.50;99.90;;;;;;21086314;28;20028;-49
2022/02/15 15:20:16;;;;;;;0.00;0.00;;;1.40;99.90;;;;;;21083845;28;20502;-50
2022/02/15 15:30:19;;;;;;;0.20;0.00;;;1.30;99.90;;;;;;21080992;28;20380;-53
2022/02/15 15:40:22;;;;;;;0.20;0.00;;;1.20;99.90;;;;;;21079475;28;20032;-50
2022/02/15 15:50:25;;;;;;;0.00;0.00;;;1.10;99.90;;;;;;21077696;28;20048;-50
2022/02/15 16:00:28;;;;;;;0.55;0.05;;;1.10;99.90;;;;;;21077668;28;20040;-52
2022/02/15 16:10:31;;;;;;;0.00;0.00;;;1.00;99.90;;;;;;21075683;28;20044;-51
2022/02/15 16:20:36;;;;;;;0.00;0.00;;;1.00;99.90;;;;;;21075511;28;20498;-50
2022/02/15 16:30:50;;;;;;;0.00;0.00;;;0.90;99.90;;;;;;21073984;28;20028;-50
2022/02/15 16:40:54;;;;;;;0.25;0.00;;;0.90;99.90;;;;;;21072716;28;20035;-50
2022/02/15 16:50:57;;;;;;;0.00;0.00;;;0.90;99.90;;;;;;21072919;28;20093;-51
2022/02/15 17:01:01;;;;;;;1.55;0.00;;;0.90;99.90;;;;;;21052879;28;20040;-51
2022/02/15 17:11:04;;;;;;;0.10;0.00;;;0.80;99.90;;;;;;21070089;28;20036;-53
2022/02/15 17:21:10;;;;;;;0.10;0.00;;;0.80;99.90;;;;;;21070705;28;20036;-50
2022/02/15 17:31:15;;;;;;;0.10;0.00;;;0.70;99.90;;;;;;21052427;28;20044;-51
2022/02/15 17:41:19;;;;;;;0.10;0.00;;;0.70;99.90;;;;;;21067320;28;20032;-53
2022/02/15 17:51:22;;;;;;;0.38;0.10;;;0.70;99.90;;;;;;21050299;28;20040;-50
2022/02/15 18:01:25;;;;;;;1.38;0.13;;;0.60;99.90;;;;;;21066390;28;20040;-49
2022/02/15 18:11:27;;;;;;;0.15;0.00;;;0.80;99.90;;;;;;21065266;28;20040;-49
2022/02/15 18:21:31;;;;;;;0.75;0.00;;;0.90;99.90;;;;;;21064702;28;20032;-50
2022/02/15 18:41:58;;;;;;;0.10;0.00;;;0.80;99.90;;;;;;21064547;28;20036;-53
2022/02/15 18:52:00;;;;;;;0.20;0.00;;;0.80;99.90;;;;;;21047771;28;20060;-50
2022/02/15 19:02:05;;;;;;;0.00;0.00;;;0.70;99.90;;;;;;21063289;28;20384;-48
2022/02/15 19:12:09;;;;;;;0.00;0.00;;;0.60;99.90;;;;;;21063246;28;20032;-49
2022/02/15 19:22:12;;;;;;;0.15;0.05;;;0.80;99.90;;;;;;21071098;28;20032;-48
2022/02/15 19:32:15;;;;;;;0.10;0.00;;;0.80;99.90;;;;;;21077581;28;20064;-49
2022/02/15 19:42:19;;;;;;;0.40;0.05;;;0.80;99.90;;;;;;21076814;28;20044;-49
2022/02/15 19:52:22;;;;;;;0.00;0.00;;;0.70;99.90;;;;;;21076304;28;20044;-49
2022/02/15 20:02:25;;;;;;;0.10;0.00;;;0.60;99.90;;;;;;21075677;28;20120;-50
2022/02/15 20:12:28;;;;;;;0.10;0.00;;;0.40;99.90;;;;;;21074549;28;20040;-49
2022/02/15 20:22:31;;;;;;;0.20;0.00;;;0.30;99.90;;;;;;21073661;28;20036;-49
2022/02/15 20:32:34;;;;;;;0.03;0.00;;;0.60;99.90;;;;;;21072457;28;20387;-48
2022/02/15 20:42:41;;;;;;;0.43;0.08;;;0.60;99.90;;;;;;21072064;28;20093;-50
2022/02/15 20:52:43;;;;;;;0.00;0.00;;;0.60;99.90;;;;;;21071291;28;20052;-49
2022/02/15 21:02:46;;;;;;;0.00;0.00;;;0.60;99.90;;;;;;21070138;28;20043;-49
2022/02/15 21:12:49;;;;;;;0.08;0.00;;;0.90;99.90;;;;;;21069562;28;20906;-48
2022/02/15 21:22:53;;;;;;;0.10;0.00;;;0.70;99.90;;;;;;21069914;28;20324;-50
2022/02/15 21:32:56;;;;;;;0.00;0.00;;;0.50;99.90;;;;;;21068359;28;20066;-51
2022/02/15 21:42:59;;;;;;;0.10;0.00;;;0.50;99.90;;;;;;21068074;28;20057;-49
2022/02/15 21:53:03;;;;;;;0.28;0.00;;;0.50;99.90;;;;;;21066617;28;20609;-53
2022/02/15 22:03:06;;;;;;;0.30;0.10;;;0.60;99.90;;;;;;21066515;28;20357;-49
2022/02/15 22:13:08;;;;;;;2.83;0.00;;;0.50;99.90;;;;;;21065876;28;20422;-49
2022/02/15 22:23:12;;;;;;;0.10;0.10;;;0.20;99.90;;;;;;21065259;28;20040;-51
2022/02/15 22:33:15;;;;;;;0.32;0.10;;;0.10;99.90;;;;;;21064709;28;20028;-50
2022/02/15 22:43:17;;;;;;;0.50;0.10;;;-0.10;99.90;;;;;;21065954;28;20467;-49
2022/02/15 22:53:21;;;;;;;0.20;0.10;;;0.00;99.90;;;;;;21068490;28;20048;-49
2022/02/15 23:03:24;;;;;;;0.30;0.15;;;-0.20;99.90;;;;;;21080102;28;20149;-49
2022/02/15 23:23:47;;;;;;;1.00;0.10;;;-0.40;99.90;;;;;;21078505;28;20066;-47
2022/02/15 23:33:49;;;;;;;0.40;0.10;;;-0.40;99.90;;;;;;21061303;28;20028;-49
2022/02/15 23:43:52;;;;;;;0.13;0.00;;;-0.40;99.90;;;;;;21077053;28;20121;-48
2022/02/15 23:53:58;;;;;;;0.25;0.00;;;-0.40;99.90;;;;;;21076245;28;20056;-47
